Terminal Aerodrome Forecast
Issued by NWS

Home | Current Version | Previous Version | Text Only | Print | Product List | Glossary On
Versions: 1 2 3 4 5 6 7 8 9 10 11 12 13 14 15 16 17 18 19 20 21
000
FTUS41 KPBZ 281157 CCA
TAFAGC
TAF COR
KAGC 281157Z 2812/2912 29003KT 5SM -SHRA BR OVC015
      TEMPO 2812/2813 2SM -SHRA BR SCT002
     FM281600 32005KT 6SM -SHRA BR OVC008
     FM282000 33008KT P6SM OVC015
     FM290300 33005KT P6SM OVC008=

USA.gov is the U.S. government's official web portal to all federal, state and local government web resources and services.